sensor_id;sensor_type;location;lat;lon;timestamp;pressure;altitude;pressure_sealevel;temperature
33267;BMP180;19638;49.080;11.896;2022-11-20T00:00:45;95672.00;;;2.10
33267;BMP180;19638;49.080;11.896;2022-11-20T00:04:48;95675.00;;;2.00
33267;BMP180;19638;49.080;11.896;2022-11-20T00:08:53;95672.00;;;1.90
33267;BMP180;19638;49.080;11.896;2022-11-20T00:13:29;95663.00;;;1.90
33267;BMP180;19638;49.080;11.896;2022-11-20T00:17:32;95676.00;;;1.90
33267;BMP180;19638;49.080;11.896;2022-11-20T00:21:35;95678.00;;;1.90
33267;BMP180;19638;49.080;11.896;2022-11-20T00:25:38;95671.00;;;2.00
33267;BMP180;19638;49.080;11.896;2022-11-20T00:30:16;95664.00;;;2.00
33267;BMP180;19638;49.080;11.896;2022-11-20T00:34:19;95678.00;;;2.10
33267;BMP180;19638;49.080;11.896;2022-11-20T00:38:23;95678.00;;;2.20
33267;BMP180;19638;49.080;11.896;2022-11-20T00:42:26;95674.00;;;2.20
33267;BMP180;19638;49.080;11.896;2022-11-20T00:46:30;95677.00;;;2.20
33267;BMP180;19638;49.080;11.896;2022-11-20T00:50:33;95680.00;;;2.10
33267;BMP180;19638;49.080;11.896;2022-11-20T00:54:36;95671.00;;;2.10
33267;BMP180;19638;49.080;11.896;2022-11-20T00:58:40;95678.00;;;2.20
33267;BMP180;19638;49.080;11.896;2022-11-20T01:02:45;95674.00;;;2.20
33267;BMP180;19638;49.080;11.896;2022-11-20T01:06:48;95671.00;;;2.20
33267;BMP180;19638;49.080;11.896;2022-11-20T01:10:51;95673.00;;;2.20
33267;BMP180;19638;49.080;11.896;2022-11-20T01:14:54;95683.00;;;2.20
33267;BMP180;19638;49.080;11.896;2022-11-20T01:19:00;95683.00;;;2.20
33267;BMP180;19638;49.080;11.896;2022-11-20T01:23:34;95662.00;;;2.20
33267;BMP180;19638;49.080;11.896;2022-11-20T01:27:37;95677.00;;;2.20
33267;BMP180;19638;49.080;11.896;2022-11-20T01:31:41;95678.00;;;2.20
33267;BMP180;19638;49.080;11.896;2022-11-20T01:35:45;95672.00;;;2.20
33267;BMP180;19638;49.080;11.896;2022-11-20T01:39:48;95675.00;;;2.30
33267;BMP180;19638;49.080;11.896;2022-11-20T01:43:51;95680.00;;;2.30
33267;BMP180;19638;49.080;11.896;2022-11-20T01:47:54;95684.00;;;2.40
33267;BMP180;19638;49.080;11.896;2022-11-20T01:52:01;95672.00;;;2.40
33267;BMP180;19638;49.080;11.896;2022-11-20T01:56:09;95679.00;;;2.50
33267;BMP180;19638;49.080;11.896;2022-11-20T02:00:15;95668.00;;;2.50
33267;BMP180;19638;49.080;11.896;2022-11-20T02:04:19;95679.00;;;2.50
33267;BMP180;19638;49.080;11.896;2022-11-20T02:08:24;95677.00;;;2.50
33267;BMP180;19638;49.080;11.896;2022-11-20T02:12:27;95665.00;;;2.60
33267;BMP180;19638;49.080;11.896;2022-11-20T02:17:03;95668.00;;;2.60
33267;BMP180;19638;49.080;11.896;2022-11-20T02:21:09;95677.00;;;2.50
33267;BMP180;19638;49.080;11.896;2022-11-20T02:25:17;95681.00;;;2.60
33267;BMP180;19638;49.080;11.896;2022-11-20T02:29:25;95666.00;;;2.60
33267;BMP180;19638;49.080;11.896;2022-11-20T02:33:57;95670.00;;;2.60
33267;BMP180;19638;49.080;11.896;2022-11-20T02:38:02;95667.00;;;2.60
33267;BMP180;19638;49.080;11.896;2022-11-20T02:42:07;95669.00;;;2.60
33267;BMP180;19638;49.080;11.896;2022-11-20T02:46:10;95659.00;;;2.60
33267;BMP180;19638;49.080;11.896;2022-11-20T02:50:44;95660.00;;;2.60
33267;BMP180;19638;49.080;11.896;2022-11-20T02:54:47;95660.00;;;2.60
33267;BMP180;19638;49.080;11.896;2022-11-20T02:58:52;95645.00;;;2.60
33267;BMP180;19638;49.080;11.896;2022-11-20T03:07:28;95655.00;;;2.70
33267;BMP180;19638;49.080;11.896;2022-11-20T03:11:31;95652.00;;;2.70
33267;BMP180;19638;49.080;11.896;2022-11-20T03:15:36;95643.00;;;2.70
33267;BMP180;19638;49.080;11.896;2022-11-20T03:19:40;95646.00;;;2.70
33267;BMP180;19638;49.080;11.896;2022-11-20T03:23:43;95643.00;;;2.70
33267;BMP180;19638;49.080;11.896;2022-11-20T03:27:46;95647.00;;;2.70
33267;BMP180;19638;49.080;11.896;2022-11-20T03:31:50;95644.00;;;2.70
33267;BMP180;19638;49.080;11.896;2022-11-20T03:35:53;95645.00;;;2.70
33267;BMP180;19638;49.080;11.896;2022-11-20T03:39:56;95653.00;;;2.70
33267;BMP180;19638;49.080;11.896;2022-11-20T03:48:34;95651.00;;;2.70
33267;BMP180;19638;49.080;11.896;2022-11-20T03:52:37;95658.00;;;2.70
33267;BMP180;19638;49.080;11.896;2022-11-20T03:57:15;95646.00;;;2.70
33267;BMP180;19638;49.080;11.896;2022-11-20T04:01:20;95655.00;;;2.70
33267;BMP180;19638;49.080;11.896;2022-11-20T04:05:25;95654.00;;;2.70
33267;BMP180;19638;49.080;11.896;2022-11-20T04:09:28;95643.00;;;2.80
33267;BMP180;19638;49.080;11.896;2022-11-20T04:13:31;95640.00;;;2.80
33267;BMP180;19638;49.080;11.896;2022-11-20T04:18:07;95639.00;;;2.80
33267;BMP180;19638;49.080;11.896;2022-11-20T04:22:12;95639.00;;;2.80
33267;BMP180;19638;49.080;11.896;2022-11-20T04:26:15;95641.00;;;2.80
33267;BMP180;19638;49.080;11.896;2022-11-20T04:30:18;95641.00;;;2.90
33267;BMP180;19638;49.080;11.896;2022-11-20T04:34:21;95638.00;;;2.90
33267;BMP180;19638;49.080;11.896;2022-11-20T04:39:00;95635.00;;;2.80
33267;BMP180;19638;49.080;11.896;2022-11-20T04:43:03;95633.00;;;2.80
33267;BMP180;19638;49.080;11.896;2022-11-20T04:47:06;95638.00;;;2.80
33267;BMP180;19638;49.080;11.896;2022-11-20T04:51:09;95627.00;;;2.90
33267;BMP180;19638;49.080;11.896;2022-11-20T04:55:13;95627.00;;;2.90
33267;BMP180;19638;49.080;11.896;2022-11-20T04:59:16;95624.00;;;2.90
33267;BMP180;19638;49.080;11.896;2022-11-20T05:03:51;95616.00;;;2.90
33267;BMP180;19638;49.080;11.896;2022-11-20T05:07:56;95622.00;;;2.90
33267;BMP180;19638;49.080;11.896;2022-11-20T05:12:00;95624.00;;;2.90
33267;BMP180;19638;49.080;11.896;2022-11-20T05:16:05;95617.00;;;2.90
33267;BMP180;19638;49.080;11.896;2022-11-20T05:20:10;95614.00;;;2.90
33267;BMP180;19638;49.080;11.896;2022-11-20T05:24:13;95616.00;;;2.90
33267;BMP180;19638;49.080;11.896;2022-11-20T05:28:18;95620.00;;;3.00
33267;BMP180;19638;49.080;11.896;2022-11-20T05:37:31;95631.00;;;3.00
33267;BMP180;19638;49.080;11.896;2022-11-20T05:41:34;95623.00;;;2.90
33267;BMP180;19638;49.080;11.896;2022-11-20T05:45:39;95632.00;;;3.00
33267;BMP180;19638;49.080;11.896;2022-11-20T05:50:13;95623.00;;;3.00
33267;BMP180;19638;49.080;11.896;2022-11-20T05:54:16;95623.00;;;3.00
33267;BMP180;19638;49.080;11.896;2022-11-20T05:58:19;95629.00;;;3.00
33267;BMP180;19638;49.080;11.896;2022-11-20T06:02:57;95619.00;;;3.00
33267;BMP180;19638;49.080;11.896;2022-11-20T06:07:00;95622.00;;;3.00
33267;BMP180;19638;49.080;11.896;2022-11-20T06:11:04;95617.00;;;3.00
33267;BMP180;19638;49.080;11.896;2022-11-20T06:19:43;95622.00;;;3.10
33267;BMP180;19638;49.080;11.896;2022-11-20T06:23:46;95619.00;;;3.10
33267;BMP180;19638;49.080;11.896;2022-11-20T06:28:20;95616.00;;;3.10
33267;BMP180;19638;49.080;11.896;2022-11-20T06:32:57;95625.00;;;3.10
33267;BMP180;19638;49.080;11.896;2022-11-20T06:37:02;95620.00;;;3.10
33267;BMP180;19638;49.080;11.896;2022-11-20T06:41:36;95619.00;;;3.10
33267;BMP180;19638;49.080;11.896;2022-11-20T06:45:39;95628.00;;;3.10
33267;BMP180;19638;49.080;11.896;2022-11-20T06:54:20;95626.00;;;3.00
33267;BMP180;19638;49.080;11.896;2022-11-20T06:58:25;95634.00;;;3.10
33267;BMP180;19638;49.080;11.896;2022-11-20T07:03:02;95628.00;;;3.10
33267;BMP180;19638;49.080;11.896;2022-11-20T07:07:05;95639.00;;;3.20
33267;BMP180;19638;49.080;11.896;2022-11-20T07:11:12;95640.00;;;3.20
33267;BMP180;19638;49.080;11.896;2022-11-20T07:15:15;95637.00;;;3.20
33267;BMP180;19638;49.080;11.896;2022-11-20T07:19:18;95649.00;;;3.30
33267;BMP180;19638;49.080;11.896;2022-11-20T07:23:21;95645.00;;;3.30
33267;BMP180;19638;49.080;11.896;2022-11-20T07:27:26;95643.00;;;3.30
33267;BMP180;19638;49.080;11.896;2022-11-20T07:31:30;95646.00;;;3.40
33267;BMP180;19638;49.080;11.896;2022-11-20T07:35:34;95647.00;;;3.40
33267;BMP180;19638;49.080;11.896;2022-11-20T07:40:08;95643.00;;;3.50
33267;BMP180;19638;49.080;11.896;2022-11-20T07:44:24;95645.00;;;3.50
33267;BMP180;19638;49.080;11.896;2022-11-20T07:48:27;95648.00;;;3.60
33267;BMP180;19638;49.080;11.896;2022-11-20T07:53:04;95645.00;;;3.60
33267;BMP180;19638;49.080;11.896;2022-11-20T07:57:07;95651.00;;;3.60
33267;BMP180;19638;49.080;11.896;2022-11-20T08:01:12;95644.00;;;3.70
33267;BMP180;19638;49.080;11.896;2022-11-20T08:10:22;95645.00;;;3.70
33267;BMP180;19638;49.080;11.896;2022-11-20T08:14:26;95652.00;;;3.70
33267;BMP180;19638;49.080;11.896;2022-11-20T08:18:31;95657.00;;;3.80
33267;BMP180;19638;49.080;11.896;2022-11-20T08:22:34;95657.00;;;3.80
33267;BMP180;19638;49.080;11.896;2022-11-20T08:26:38;95656.00;;;3.90
33267;BMP180;19638;49.080;11.896;2022-11-20T08:31:12;95659.00;;;3.90
33267;BMP180;19638;49.080;11.896;2022-11-20T08:35:26;95657.00;;;3.90
33267;BMP180;19638;49.080;11.896;2022-11-20T08:39:29;95662.00;;;4.00
33267;BMP180;19638;49.080;11.896;2022-11-20T08:43:32;95663.00;;;4.00
33267;BMP180;19638;49.080;11.896;2022-11-20T08:47:35;95667.00;;;4.00
33267;BMP180;19638;49.080;11.896;2022-11-20T08:51:40;95665.00;;;4.10
33267;BMP180;19638;49.080;11.896;2022-11-20T08:55:43;95671.00;;;4.10
33267;BMP180;19638;49.080;11.896;2022-11-20T09:00:20;95667.00;;;4.10
33267;BMP180;19638;49.080;11.896;2022-11-20T09:04:57;95672.00;;;4.10
33267;BMP180;19638;49.080;11.896;2022-11-20T09:14:12;95670.00;;;4.30
33267;BMP180;19638;49.080;11.896;2022-11-20T09:18:21;95666.00;;;4.50
33267;BMP180;19638;49.080;11.896;2022-11-20T09:22:52;95664.00;;;4.70
33267;BMP180;19638;49.080;11.896;2022-11-20T09:31:54;95661.00;;;4.80
33267;BMP180;19638;49.080;11.896;2022-11-20T09:36:28;95662.00;;;4.90
33267;BMP180;19638;49.080;11.896;2022-11-20T09:40:31;95663.00;;;5.00
33267;BMP180;19638;49.080;11.896;2022-11-20T09:45:10;95664.00;;;5.10
33267;BMP180;19638;49.080;11.896;2022-11-20T09:49:49;95660.00;;;5.10
33267;BMP180;19638;49.080;11.896;2022-11-20T09:54:09;95655.00;;;5.20
33267;BMP180;19638;49.080;11.896;2022-11-20T09:58:33;95654.00;;;5.20
33267;BMP180;19638;49.080;11.896;2022-11-20T10:03:11;95646.00;;;5.20
33267;BMP180;19638;49.080;11.896;2022-11-20T10:07:20;95647.00;;;5.30
33267;BMP180;19638;49.080;11.896;2022-11-20T10:11:44;95653.00;;;5.30
33267;BMP180;19638;49.080;11.896;2022-11-20T10:15:57;95653.00;;;5.30
33267;BMP180;19638;49.080;11.896;2022-11-20T10:20:27;95656.00;;;5.30
33267;BMP180;19638;49.080;11.896;2022-11-20T10:25:05;95646.00;;;5.40
33267;BMP180;19638;49.080;11.896;2022-11-20T10:29:38;95639.00;;;5.50
33267;BMP180;19638;49.080;11.896;2022-11-20T10:34:18;95636.00;;;5.70
33267;BMP180;19638;49.080;11.896;2022-11-20T10:43:32;95626.00;;;5.70
33267;BMP180;19638;49.080;11.896;2022-11-20T10:52:28;95624.00;;;5.70
33267;BMP180;19638;49.080;11.896;2022-11-20T10:56:38;95631.00;;;5.70
33267;BMP180;19638;49.080;11.896;2022-11-20T11:01:15;95641.00;;;5.70
33267;BMP180;19638;49.080;11.896;2022-11-20T11:05:31;95630.00;;;5.50
33267;BMP180;19638;49.080;11.896;2022-11-20T11:14:17;95625.00;;;5.30
33267;BMP180;19638;49.080;11.896;2022-11-20T11:18:27;95614.00;;;5.30
33267;BMP180;19638;49.080;11.896;2022-11-20T11:22:33;95621.00;;;5.50
33267;BMP180;19638;49.080;11.896;2022-11-20T11:26:36;95620.00;;;5.50
33267;BMP180;19638;49.080;11.896;2022-11-20T11:30:43;95614.00;;;5.40
33267;BMP180;19638;49.080;11.896;2022-11-20T11:35:00;95610.00;;;5.50
33267;BMP180;19638;49.080;11.896;2022-11-20T11:39:05;95607.00;;;5.40
33267;BMP180;19638;49.080;11.896;2022-11-20T11:48:02;95603.00;;;5.50
33267;BMP180;19638;49.080;11.896;2022-11-20T11:52:13;95599.00;;;5.60
33267;BMP180;19638;49.080;11.896;2022-11-20T11:56:42;95592.00;;;5.70
33267;BMP180;19638;49.080;11.896;2022-11-20T12:00:53;95597.00;;;5.90
33267;BMP180;19638;49.080;11.896;2022-11-20T12:05:00;95600.00;;;6.00
33267;BMP180;19638;49.080;11.896;2022-11-20T12:09:34;95599.00;;;6.10
33267;BMP180;19638;49.080;11.896;2022-11-20T12:13:46;95588.00;;;6.20
33267;BMP180;19638;49.080;11.896;2022-11-20T12:22:29;95589.00;;;6.20
33267;BMP180;19638;49.080;11.896;2022-11-20T12:26:56;95592.00;;;6.20
33267;BMP180;19638;49.080;11.896;2022-11-20T12:31:45;95591.00;;;6.20
33267;BMP180;19638;49.080;11.896;2022-11-20T12:36:01;95585.00;;;6.30
33267;BMP180;19638;49.080;11.896;2022-11-20T12:40:28;95585.00;;;6.40
33267;BMP180;19638;49.080;11.896;2022-11-20T12:45:05;95582.00;;;6.40
33267;BMP180;19638;49.080;11.896;2022-11-20T12:49:25;95580.00;;;6.50
33267;BMP180;19638;49.080;11.896;2022-11-20T12:53:34;95582.00;;;6.50
33267;BMP180;19638;49.080;11.896;2022-11-20T12:58:09;95578.00;;;6.60
33267;BMP180;19638;49.080;11.896;2022-11-20T13:02:25;95586.00;;;6.70
33267;BMP180;19638;49.080;11.896;2022-11-20T13:06:51;95582.00;;;6.60
33267;BMP180;19638;49.080;11.896;2022-11-20T13:11:12;95565.00;;;6.60
33267;BMP180;19638;49.080;11.896;2022-11-20T13:15:29;95568.00;;;6.70
33267;BMP180;19638;49.080;11.896;2022-11-20T13:19:36;95566.00;;;6.80
33267;BMP180;19638;49.080;11.896;2022-11-20T13:23:39;95560.00;;;6.90
33267;BMP180;19638;49.080;11.896;2022-11-20T13:32:49;95568.00;;;6.90
33267;BMP180;19638;49.080;11.896;2022-11-20T13:37:25;95566.00;;;6.90
33267;BMP180;19638;49.080;11.896;2022-11-20T13:41:54;95569.00;;;6.80
33267;BMP180;19638;49.080;11.896;2022-11-20T13:55:50;95586.00;;;6.70
33267;BMP180;19638;49.080;11.896;2022-11-20T14:00:21;95576.00;;;6.30
33267;BMP180;19638;49.080;11.896;2022-11-20T14:04:58;95574.00;;;6.00
33267;BMP180;19638;49.080;11.896;2022-11-20T14:14:15;95562.00;;;5.90
33267;BMP180;19638;49.080;11.896;2022-11-20T14:18:45;95564.00;;;5.90
33267;BMP180;19638;49.080;11.896;2022-11-20T14:23:23;95575.00;;;5.80
33267;BMP180;19638;49.080;11.896;2022-11-20T14:32:31;95574.00;;;5.70
33267;BMP180;19638;49.080;11.896;2022-11-20T14:37:05;95575.00;;;5.70
33267;BMP180;19638;49.080;11.896;2022-11-20T14:41:49;95568.00;;;5.80
33267;BMP180;19638;49.080;11.896;2022-11-20T14:46:16;95559.00;;;5.90
33267;BMP180;19638;49.080;11.896;2022-11-20T14:50:53;95557.00;;;6.00
33267;BMP180;19638;49.080;11.896;2022-11-20T14:55:30;95543.00;;;6.00
33267;BMP180;19638;49.080;11.896;2022-11-20T14:59:34;95539.00;;;6.10
33267;BMP180;19638;49.080;11.896;2022-11-20T15:03:38;95554.00;;;6.10
33267;BMP180;19638;49.080;11.896;2022-11-20T15:08:17;95540.00;;;6.10
33267;BMP180;19638;49.080;11.896;2022-11-20T15:12:52;95538.00;;;6.20
33267;BMP180;19638;49.080;11.896;2022-11-20T15:16:56;95549.00;;;6.20
33267;BMP180;19638;49.080;11.896;2022-11-20T15:21:02;95549.00;;;6.20
33267;BMP180;19638;49.080;11.896;2022-11-20T15:25:12;95550.00;;;6.30
33267;BMP180;19638;49.080;11.896;2022-11-20T15:29:24;95602.00;;;6.30
33267;BMP180;19638;49.080;11.896;2022-11-20T15:33:52;95594.00;;;5.90
33267;BMP180;19638;49.080;11.896;2022-11-20T15:37:55;95581.00;;;5.60
33267;BMP180;19638;49.080;11.896;2022-11-20T15:42:00;95591.00;;;5.40
33267;BMP180;19638;49.080;11.896;2022-11-20T15:46:04;95567.00;;;5.20
33267;BMP180;19638;49.080;11.896;2022-11-20T15:50:41;95568.00;;;5.00
33267;BMP180;19638;49.080;11.896;2022-11-20T15:54:46;95563.00;;;5.00
33267;BMP180;19638;49.080;11.896;2022-11-20T15:58:50;95570.00;;;5.00
33267;BMP180;19638;49.080;11.896;2022-11-20T16:02:54;95575.00;;;5.00
33267;BMP180;19638;49.080;11.896;2022-11-20T16:11:34;95585.00;;;5.10
33267;BMP180;19638;49.080;11.896;2022-11-20T16:15:39;95581.00;;;5.10
33267;BMP180;19638;49.080;11.896;2022-11-20T16:19:47;95580.00;;;5.10
33267;BMP180;19638;49.080;11.896;2022-11-20T16:24:22;95574.00;;;5.10
33267;BMP180;19638;49.080;11.896;2022-11-20T16:28:26;95576.00;;;5.10
33267;BMP180;19638;49.080;11.896;2022-11-20T16:32:31;95570.00;;;5.10
33267;BMP180;19638;49.080;11.896;2022-11-20T16:37:05;95564.00;;;5.10
33267;BMP180;19638;49.080;11.896;2022-11-20T16:41:08;95560.00;;;5.10
33267;BMP180;19638;49.080;11.896;2022-11-20T16:45:15;95552.00;;;5.10
33267;BMP180;19638;49.080;11.896;2022-11-20T16:49:53;95577.00;;;4.90
33267;BMP180;19638;49.080;11.896;2022-11-20T16:54:26;95566.00;;;4.80
33267;BMP180;19638;49.080;11.896;2022-11-20T17:03:39;95554.00;;;4.80
33267;BMP180;19638;49.080;11.896;2022-11-20T17:07:43;95563.00;;;4.90
33267;BMP180;19638;49.080;11.896;2022-11-20T17:12:17;95562.00;;;5.00
33267;BMP180;19638;49.080;11.896;2022-11-20T17:16:54;95548.00;;;5.00
33267;BMP180;19638;49.080;11.896;2022-11-20T17:21:31;95552.00;;;5.00
33267;BMP180;19638;49.080;11.896;2022-11-20T17:26:09;95547.00;;;5.00
33267;BMP180;19638;49.080;11.896;2022-11-20T17:35:46;95539.00;;;4.80
33267;BMP180;19638;49.080;11.896;2022-11-20T17:40:23;95536.00;;;4.70
33267;BMP180;19638;49.080;11.896;2022-11-20T17:45:01;95550.00;;;4.60
33267;BMP180;19638;49.080;11.896;2022-11-20T17:49:39;95536.00;;;4.50
33267;BMP180;19638;49.080;11.896;2022-11-20T17:58:52;95537.00;;;4.40
33267;BMP180;19638;49.080;11.896;2022-11-20T18:03:30;95539.00;;;4.30
33267;BMP180;19638;49.080;11.896;2022-11-20T18:12:41;95530.00;;;4.10
33267;BMP180;19638;49.080;11.896;2022-11-20T18:17:18;95520.00;;;4.00
33267;BMP180;19638;49.080;11.896;2022-11-20T18:21:57;95511.00;;;3.80
33267;BMP180;19638;49.080;11.896;2022-11-20T18:31:09;95505.00;;;3.30
33267;BMP180;19638;49.080;11.896;2022-11-20T18:35:46;95497.00;;;3.20
33267;BMP180;19638;49.080;11.896;2022-11-20T18:40:25;95501.00;;;3.30
33267;BMP180;19638;49.080;11.896;2022-11-20T18:44:59;95487.00;;;3.30
33267;BMP180;19638;49.080;11.896;2022-11-20T18:49:33;95480.00;;;3.40
33267;BMP180;19638;49.080;11.896;2022-11-20T18:54:10;95467.00;;;3.50
33267;BMP180;19638;49.080;11.896;2022-11-20T18:58:49;95467.00;;;3.40
33267;BMP180;19638;49.080;11.896;2022-11-20T19:03:23;95465.00;;;3.40
33267;BMP180;19638;49.080;11.896;2022-11-20T19:07:29;95468.00;;;3.30
33267;BMP180;19638;49.080;11.896;2022-11-20T19:16:44;95478.00;;;3.40
33267;BMP180;19638;49.080;11.896;2022-11-20T19:21:22;95466.00;;;3.40
33267;BMP180;19638;49.080;11.896;2022-11-20T19:26:00;95469.00;;;3.40
33267;BMP180;19638;49.080;11.896;2022-11-20T19:39:53;95444.00;;;3.40
33267;BMP180;19638;49.080;11.896;2022-11-20T19:44:27;95449.00;;;3.30
33267;BMP180;19638;49.080;11.896;2022-11-20T19:49:04;95446.00;;;3.30
33267;BMP180;19638;49.080;11.896;2022-11-20T19:53:39;95447.00;;;3.30
33267;BMP180;19638;49.080;11.896;2022-11-20T20:02:53;95435.00;;;3.40
33267;BMP180;19638;49.080;11.896;2022-11-20T20:07:27;95427.00;;;3.40
33267;BMP180;19638;49.080;11.896;2022-11-20T20:12:05;95426.00;;;3.50
33267;BMP180;19638;49.080;11.896;2022-11-20T20:20:56;95423.00;;;3.60
33267;BMP180;19638;49.080;11.896;2022-11-20T20:25:05;95412.00;;;3.70
33267;BMP180;19638;49.080;11.896;2022-11-20T20:29:41;95409.00;;;3.80
33267;BMP180;19638;49.080;11.896;2022-11-20T20:33:45;95403.00;;;3.80
33267;BMP180;19638;49.080;11.896;2022-11-20T20:37:49;95391.00;;;3.80
33267;BMP180;19638;49.080;11.896;2022-11-20T20:42:23;95394.00;;;3.80
33267;BMP180;19638;49.080;11.896;2022-11-20T20:47:00;95387.00;;;3.70
33267;BMP180;19638;49.080;11.896;2022-11-20T20:51:37;95392.00;;;3.60
33267;BMP180;19638;49.080;11.896;2022-11-20T20:55:58;95391.00;;;3.50
33267;BMP180;19638;49.080;11.896;2022-11-20T21:00:29;95383.00;;;3.40
33267;BMP180;19638;49.080;11.896;2022-11-20T21:05:06;95370.00;;;3.40
33267;BMP180;19638;49.080;11.896;2022-11-20T21:09:43;95364.00;;;3.30
33267;BMP180;19638;49.080;11.896;2022-11-20T21:14:22;95368.00;;;3.30
33267;BMP180;19638;49.080;11.896;2022-11-20T21:23:33;95369.00;;;3.50
33267;BMP180;19638;49.080;11.896;2022-11-20T21:28:07;95370.00;;;3.60
33267;BMP180;19638;49.080;11.896;2022-11-20T21:32:18;95356.00;;;3.80
33267;BMP180;19638;49.080;11.896;2022-11-20T21:36:52;95363.00;;;3.90
33267;BMP180;19638;49.080;11.896;2022-11-20T21:40:56;95361.00;;;4.00
33267;BMP180;19638;49.080;11.896;2022-11-20T21:44:59;95359.00;;;4.10
33267;BMP180;19638;49.080;11.896;2022-11-20T21:49:38;95357.00;;;4.20
33267;BMP180;19638;49.080;11.896;2022-11-20T21:53:42;95353.00;;;4.30
33267;BMP180;19638;49.080;11.896;2022-11-20T21:57:45;95353.00;;;4.50
33267;BMP180;19638;49.080;11.896;2022-11-20T22:02:22;95360.00;;;4.60
33267;BMP180;19638;49.080;11.896;2022-11-20T22:06:29;95356.00;;;4.70
33267;BMP180;19638;49.080;11.896;2022-11-20T22:10:34;95357.00;;;4.80
33267;BMP180;19638;49.080;11.896;2022-11-20T22:19:15;95346.00;;;5.00
33267;BMP180;19638;49.080;11.896;2022-11-20T22:23:20;95330.00;;;4.90
33267;BMP180;19638;49.080;11.896;2022-11-20T22:27:23;95335.00;;;4.90
33267;BMP180;19638;49.080;11.896;2022-11-20T22:31:30;95328.00;;;4.90
33267;BMP180;19638;49.080;11.896;2022-11-20T22:35:33;95325.00;;;4.90
33267;BMP180;19638;49.080;11.896;2022-11-20T22:39:38;95327.00;;;4.90
33267;BMP180;19638;49.080;11.896;2022-11-20T22:44:12;95325.00;;;4.90
33267;BMP180;19638;49.080;11.896;2022-11-20T22:48:15;95323.00;;;4.80
33267;BMP180;19638;49.080;11.896;2022-11-20T22:52:52;95331.00;;;4.80
33267;BMP180;19638;49.080;11.896;2022-11-20T22:56:57;95322.00;;;4.80
33267;BMP180;19638;49.080;11.896;2022-11-20T23:01:10;95320.00;;;4.90
33267;BMP180;19638;49.080;11.896;2022-11-20T23:05:44;95313.00;;;4.90
33267;BMP180;19638;49.080;11.896;2022-11-20T23:09:47;95312.00;;;4.90
33267;BMP180;19638;49.080;11.896;2022-11-20T23:13:53;95304.00;;;4.90
33267;BMP180;19638;49.080;11.896;2022-11-20T23:17:58;95312.00;;;4.90
33267;BMP180;19638;49.080;11.896;2022-11-20T23:22:01;95296.00;;;4.90
33267;BMP180;19638;49.080;11.896;2022-11-20T23:26:06;95289.00;;;4.90
33267;BMP180;19638;49.080;11.896;2022-11-20T23:30:12;95295.00;;;4.90
33267;BMP180;19638;49.080;11.896;2022-11-20T23:34:15;95287.00;;;5.00
33267;BMP180;19638;49.080;11.896;2022-11-20T23:38:19;95293.00;;;5.00
33267;BMP180;19638;49.080;11.896;2022-11-20T23:42:22;95290.00;;;5.00
33267;BMP180;19638;49.080;11.896;2022-11-20T23:47:00;95289.00;;;5.10
33267;BMP180;19638;49.080;11.896;2022-11-20T23:51:05;95275.00;;;5.10
33267;BMP180;19638;49.080;11.896;2022-11-20T23:55:08;95281.00;;;5.10
33267;BMP180;19638;49.080;11.896;2022-11-20T23:59:11;95272.00;;;5.20
